Golden, Oklahoma
Current Conditions -  °F | °C
As of 2:15 PM on Monday 24 Nov 2014 (Local Time) from K4O4 Reporting Station
Clear Clear  
Wind Chill: 61°   Ceiling: Unl
Heat Index: 61°   Visibility: 10mi
Dew Point: 25°   Wind: 8mph
Humidity: 25%   Direction: 310°NW
Pressure: 29.98"   Gusts: 22mph
Location:  34.03°N, 94.9°W
Report Text: K4O4 242015Z AUTO 31007G19KT 10SM CLR 16/M04 A2998 RMK AO2
Loading
Personal Weather Stations






























Interactive Weather Map New forecast layout! Learn more

10-Day Weather Forecast

Advertisements
Track Severe Weather on mobile